Time;durP1;ratioP1;P1;durP2;ratioP2;P2;SDS_P1;SDS_P2;PMS_P1;PMS_P2;Temp;Humidity;BMP_temperature;BMP_pressure;BME280_temperature;BME280_humidity;BME280_pressure;Samples;Min_cycle;Max_cycle;Signal;HPM_P1;HPM_P2
2022/01/17 00:01:22;;;;;;;5.95;1.17;;;;;;;-2.94;100.00;98379.19;4889923;29;20047;-61
2022/01/17 00:04:06;;;;;;;6.60;1.23;;;;;;;-2.87;100.00;98380.13;4886261;29;20525;-59
2022/01/17 00:06:51;;;;;;;6.97;1.30;;;;;;;-2.88;100.00;98374.09;4887588;29;20059;-58
2022/01/17 00:09:36;;;;;;;4.75;0.93;;;;;;;-2.94;100.00;98370.53;4875503;29;20055;-55
2022/01/17 00:12:20;;;;;;;2.83;0.80;;;;;;;-2.82;100.00;98350.78;4885219;29;20795;-55
2022/01/17 00:15:14;;;;;;;5.18;1.02;;;;;;;-2.49;100.00;98350.22;4888104;29;20438;-57
2022/01/17 00:21:15;;;;;;;2.80;0.90;;;;;;;-2.68;100.00;98330.19;4866498;29;20157;-57
2022/01/17 00:24:00;;;;;;;3.63;0.90;;;;;;;-2.76;100.00;98324.06;4864000;29;20079;-62
2022/01/17 00:26:50;;;;;;;;;;;;;;;-2.83;100.00;98333.50;4877972;29;20127;-56
2022/01/17 00:29:35;;;;;;;3.03;1.08;;;;;;;-2.79;100.00;98330.09;4864134;29;20459;-55
2022/01/17 00:32:20;;;;;;;4.30;0.95;;;;;;;-2.93;100.00;98326.47;4848567;29;20132;-54
2022/01/17 00:35:05;;;;;;;3.63;1.10;;;;;;;-2.76;100.00;98316.28;4865379;29;20055;-54
2022/01/17 00:37:52;;;;;;;5.05;0.70;;;;;;;-2.89;100.00;98319.63;4863402;29;20052;-62
2022/01/17 00:40:37;;;;;;;4.70;1.20;;;;;;;-2.81;100.00;98307.59;4860784;29;20120;-58
2022/01/17 00:43:21;;;;;;;4.50;1.02;;;;;;;-3.05;100.00;98305.63;4872952;29;20091;-53
2022/01/17 00:46:06;;;;;;;3.20;0.90;;;;;;;-3.09;100.00;98288.31;4878493;29;20177;-55
2022/01/17 00:48:51;;;;;;;4.32;0.93;;;;;;;-2.95;100.00;98301.41;4876544;29;20088;-56
2022/01/17 00:51:36;;;;;;;4.00;0.98;;;;;;;-3.06;100.00;98279.69;4876230;29;20068;-56
2022/01/17 00:54:21;;;;;;;2.25;0.70;;;;;;;-3.12;100.00;98266.69;4865368;29;20138;-57
2022/01/17 00:57:05;;;;;;;3.25;0.95;;;;;;;-3.04;100.00;98259.84;4881640;29;20130;-65
2022/01/17 00:59:52;;;;;;;4.35;1.05;;;;;;;-3.10;100.00;98252.91;4886928;29;20118;-60
2022/01/17 01:02:38;;;;;;;4.82;1.00;;;;;;;-3.10;100.00;98237.34;4884906;29;20108;-56
2022/01/17 01:05:23;;;;;;;3.20;1.00;;;;;;;-3.22;100.00;98231.16;4885126;29;20056;-52
2022/01/17 01:08:07;;;;;;;2.90;0.80;;;;;;;-3.09;100.00;98225.25;4870503;29;20136;-53
2022/01/17 01:10:53;;;;;;;2.67;0.85;;;;;;;-3.05;100.00;98224.44;4875968;29;20075;-55
2022/01/17 01:13:39;;;;;;;3.97;0.80;;;;;;;-3.07;100.00;98208.88;4888660;29;20062;-53
2022/01/17 01:16:32;;;;;;;2.42;0.57;;;;;;;-3.12;100.00;98202.78;4888057;29;20055;-60
2022/01/17 01:28:14;;;;;;;3.30;0.90;;;;;;;-2.74;100.00;98166.75;4880962;29;20052;-57
2022/01/17 01:31:03;;;;;;;2.58;0.70;;;;;;;-2.81;100.00;98165.00;4874401;29;20654;-56
2022/01/17 01:33:54;;;;;;;3.67;1.08;;;;;;;-2.81;100.00;98180.53;4881144;29;20881;-60
2022/01/17 01:36:41;;;;;;;4.10;1.05;;;;;;;-2.77;100.00;98164.16;4883051;29;20123;-55
2022/01/17 01:39:26;;;;;;;3.47;1.10;;;;;;;-2.79;100.00;98171.91;4886623;29;20760;-55
2022/01/17 01:42:17;;;;;;;2.90;0.93;;;;;;;-2.53;100.00;98156.50;4879793;29;20051;-54
2022/01/17 01:45:07;;;;;;;4.30;0.90;;;;;;;-2.48;100.00;98147.91;4857212;29;20104;-54
2022/01/17 01:47:52;;;;;;;3.97;0.80;;;;;;;-2.51;100.00;98152.19;4868652;29;20187;-52
2022/01/17 01:50:37;;;;;;;3.05;0.80;;;;;;;-2.14;100.00;98148.91;4868417;29;20144;-61
2022/01/17 01:53:23;;;;;;;2.20;0.55;;;;;;;-2.24;100.00;98139.34;4873363;29;20117;-66
2022/01/17 01:56:08;;;;;;;4.05;0.77;;;;;;;-2.21;100.00;98137.59;4887431;29;20408;-56
2022/01/17 01:58:54;;;;;;;5.15;0.93;;;;;;;-2.06;100.00;98129.03;4868424;29;20186;-55
2022/01/17 02:01:39;;;;;;;5.80;0.90;;;;;;;-2.08;100.00;98121.22;4868784;29;20889;-61
2022/01/17 02:04:25;;;;;;;2.45;0.70;;;;;;;-2.05;100.00;98112.59;4883430;29;20080;-58
2022/01/17 02:07:11;;;;;;;3.47;0.90;;;;;;;-1.91;100.00;98101.38;4883621;29;20056;-54
2022/01/17 02:09:56;;;;;;;;;;;;;;;-1.87;100.00;98095.31;4878692;29;20599;-55
2022/01/17 02:12:40;;;;;;;5.00;0.90;;;;;;;-1.96;100.00;98087.50;4881153;29;19927;-54
2022/01/17 02:15:25;;;;;;;7.97;1.20;;;;;;;-1.91;100.00;98083.19;4883948;29;20109;-56
2022/01/17 02:18:12;;;;;;;3.08;0.85;;;;;;;-2.04;100.00;98081.44;4892288;29;20833;-55
2022/01/17 02:21:20;;;;;;;3.90;1.00;;;;;;;-1.85;100.00;98077.13;4889808;29;20116;-56
2022/01/17 02:24:04;;;;;;;4.38;0.80;;;;;;;-2.15;100.00;98069.28;4876481;29;20149;-60
2022/01/17 02:26:51;;;;;;;;;;;;;;;-2.19;100.00;98050.25;4893166;29;20428;-54
2022/01/17 02:29:36;;;;;;;3.83;0.70;;;;;;;-2.32;100.00;98051.09;4895218;29;19930;-53
2022/01/17 02:32:21;;;;;;;4.43;0.80;;;;;;;-2.04;100.00;98049.41;4876678;29;20051;-64
2022/01/17 02:35:22;;;;;;;1.27;0.52;;;;;;;-2.04;100.00;98037.31;4878908;29;20060;-57
2022/01/17 02:38:06;;;;;;;4.75;1.10;;;;;;;-2.23;100.00;98027.75;4888507;29;20523;-56
2022/01/17 02:40:52;;;;;;;2.67;0.82;;;;;;;-2.35;100.00;98017.34;4902866;29;20119;-65
2022/01/17 02:43:39;;;;;;;2.92;0.77;;;;;;;-2.15;100.00;98007.88;4875835;29;20201;-56
2022/01/17 02:46:25;;;;;;;2.17;0.60;;;;;;;-1.95;100.00;98000.97;4883085;29;20674;-55
2022/01/17 02:49:11;;;;;;;1.80;0.65;;;;;;;-1.96;100.00;97985.38;4871691;29;20095;-60
2022/01/17 02:51:55;;;;;;;3.55;0.95;;;;;;;-2.05;100.00;97978.44;4880754;29;20060;-57
2022/01/17 02:54:40;;;;;;;;;;;;;;;-2.05;100.00;97983.63;4881734;29;20626;-57
2022/01/17 02:57:27;;;;;;;5.40;1.10;;;;;;;-1.96;100.00;97972.41;4894079;29;19977;-56
2022/01/17 03:00:13;;;;;;;4.50;1.20;;;;;;;-2.01;100.00;97966.34;4870242;29;20076;-56
2022/01/17 03:02:58;;;;;;;3.97;0.73;;;;;;;-1.94;100.00;97966.34;4878571;29;20694;-53
2022/01/17 03:05:44;;;;;;;3.35;0.70;;;;;;;-1.89;100.00;97943.84;4879509;29;20204;-55
2022/01/17 03:08:32;;;;;;;6.13;0.88;;;;;;;-1.84;100.00;97957.69;4872711;29;20052;-59
2022/01/17 03:11:21;;;;;;;6.80;1.02;;;;;;;-1.78;100.00;97941.25;4886405;29;20058;-58
2022/01/17 03:14:06;;;;;;;5.90;0.75;;;;;;;-1.86;100.00;97940.38;4869889;29;20052;-55
2022/01/17 03:16:52;;;;;;;4.43;1.30;;;;;;;-1.85;100.00;97942.09;4875727;29;20085;-63
2022/01/17 03:19:38;;;;;;;5.40;1.10;;;;;;;-1.91;100.00;97932.59;4889595;29;20187;-64
2022/01/17 03:22:25;;;;;;;3.22;0.70;;;;;;;-1.80;100.00;97925.66;4891368;29;20105;-64
2022/01/17 03:25:11;;;;;;;3.67;1.00;;;;;;;-1.80;100.00;97920.47;4891198;29;20047;-65
2022/01/17 03:27:57;;;;;;;5.82;1.40;;;;;;;-2.11;100.00;97923.06;4884667;29;20205;-65
2022/01/17 03:30:43;;;;;;;2.35;0.70;;;;;;;-2.21;100.00;97919.59;4860265;29;20213;-57
2022/01/17 03:33:29;;;;;;;2.90;0.90;;;;;;;-2.08;100.00;97904.91;4873048;29;20109;-60
2022/01/17 03:36:15;;;;;;;4.18;0.93;;;;;;;-2.03;100.00;97916.13;4892996;29;20103;-57
2022/01/17 03:39:01;;;;;;;2.13;0.85;;;;;;;-2.03;100.00;97877.19;4883996;29;20108;-57
2022/01/17 03:41:46;;;;;;;4.38;0.93;;;;;;;-1.75;100.00;97903.13;4890971;29;20083;-64
2022/01/17 03:44:31;;;;;;;;;;;;;;;-1.68;100.00;97888.41;4883896;29;20537;-62
2022/01/17 03:47:17;;;;;;;3.33;0.88;;;;;;;-1.74;100.00;97893.63;4889653;29;20022;-61
2022/01/17 03:50:06;;;;;;;2.88;1.00;;;;;;;-2.01;100.00;97894.50;4874951;29;20108;-55
2022/01/17 03:52:54;;;;;;;5.45;1.02;;;;;;;-1.95;100.00;97888.44;4884601;29;20112;-56
2022/01/17 03:55:39;;;;;;;5.05;0.85;;;;;;;-1.92;100.00;97889.31;4881355;29;20633;-73
2022/01/17 03:58:27;;;;;;;4.70;1.00;;;;;;;-2.07;100.00;97891.94;4878780;29;20156;-62
2022/01/17 04:01:13;;;;;;;4.00;1.05;;;;;;;-1.94;100.00;97874.63;4874867;29;20059;-61
2022/01/17 04:03:59;;;;;;;5.13;0.95;;;;;;;-2.03;100.00;97869.41;4872630;29;20386;-59
2022/01/17 04:06:44;;;;;;;2.72;0.85;;;;;;;-1.90;100.00;97851.22;4873285;29;20059;-58
2022/01/17 04:09:29;;;;;;;4.38;0.88;;;;;;;-1.80;100.00;97859.84;4892210;29;20406;-63
2022/01/17 04:12:13;;;;;;;2.83;0.85;;;;;;;-1.76;100.00;97852.06;4884998;29;20591;-57
2022/01/17 04:14:59;;;;;;;2.88;1.00;;;;;;;-1.66;100.00;97845.13;4883649;29;20104;-68
2022/01/17 04:17:44;;;;;;;3.55;0.80;;;;;;;-1.85;100.00;97828.72;4880335;29;20062;-60
2022/01/17 04:20:30;;;;;;;3.33;0.90;;;;;;;-1.57;100.00;97827.78;4883520;29;20102;-57
2022/01/17 04:23:15;;;;;;;3.83;0.73;;;;;;;-1.71;100.00;97811.34;4878787;29;20466;-55
2022/01/17 04:26:00;;;;;;;2.17;0.88;;;;;;;-1.61;100.00;97813.06;4893537;29;20111;-60
2022/01/17 04:28:45;;;;;;;2.65;0.65;;;;;;;-1.67;100.00;97812.19;4858710;29;20111;-63
2022/01/17 04:31:30;;;;;;;1.73;0.75;;;;;;;-1.46;100.00;97799.97;4872813;29;20446;-64
2022/01/17 04:34:14;;;;;;;4.50;0.80;;;;;;;-1.34;100.00;97793.88;4897236;29;20071;-64
2022/01/17 04:36:59;;;;;;;2.45;0.80;;;;;;;-1.32;100.00;97781.72;4876791;29;20137;-62
2022/01/17 04:39:44;;;;;;;1.65;0.80;;;;;;;-1.64;100.00;97781.91;4868640;29;20068;-60
2022/01/17 04:42:29;;;;;;;6.03;0.90;;;;;;;-1.69;100.00;97749.00;4886254;29;20820;-55
2022/01/17 04:45:16;;;;;;;2.53;1.02;;;;;;;-1.67;100.00;97771.50;4881675;29;20095;-57
2022/01/17 04:48:01;;;;;;;4.47;1.00;;;;;;;-1.63;100.00;97757.63;4870653;29;20051;-61
2022/01/17 04:50:46;;;;;;;3.33;1.00;;;;;;;-1.72;100.00;97760.28;4869030;29;20409;-57
2022/01/17 04:53:33;;;;;;;4.32;0.90;;;;;;;-1.63;100.00;97759.38;4879906;29;20088;-59
2022/01/17 04:56:18;;;;;;;5.28;0.80;;;;;;;-1.65;100.00;97756.81;4887443;29;20075;-59
2022/01/17 04:59:03;;;;;;;3.08;1.02;;;;;;;-1.73;100.00;97737.78;4885938;29;20154;-50
2022/01/17 05:01:48;;;;;;;6.57;0.90;;;;;;;-1.82;100.00;97747.34;4881923;29;20143;-54
2022/01/17 05:04:33;;;;;;;4.45;0.80;;;;;;;-1.84;100.00;97744.75;4878609;29;20052;-58
2022/01/17 05:07:18;;;;;;;1.98;0.80;;;;;;;-1.93;100.00;97736.97;4879818;29;20489;-64
2022/01/17 05:10:10;;;;;;;4.57;0.90;;;;;;;-1.94;100.00;97732.66;4873919;29;20071;-56
2022/01/17 05:12:54;;;;;;;3.45;0.77;;;;;;;-2.01;100.00;97725.75;4882924;29;20377;-60
2022/01/17 05:15:46;;;;;;;2.70;0.98;;;;;;;-2.20;100.00;97708.56;4884144;29;20059;-57
2022/01/17 05:21:21;;;;;;;4.38;1.05;;;;;;;-2.23;100.00;97697.28;4870117;29;20068;-56
2022/01/17 05:24:05;;;;;;;3.78;0.98;;;;;;;-2.45;100.00;97670.56;4878290;29;20576;-62
2022/01/17 05:26:51;;;;;;;4.70;1.20;;;;;;;-2.42;100.00;97667.13;4885190;29;20055;-56
2022/01/17 05:29:36;;;;;;;4.93;1.35;;;;;;;-2.47;100.00;97667.13;4878160;29;20546;-56
2022/01/17 05:32:21;;;;;;;4.95;1.15;;;;;;;-2.33;100.00;97690.44;4872224;29;20056;-55
2022/01/17 05:35:07;;;;;;;5.35;1.35;;;;;;;-2.33;100.00;97672.28;4871522;29;20055;-64
2022/01/17 05:37:52;;;;;;;7.78;1.40;;;;;;;-2.32;100.00;97674.84;4874111;29;20064;-63
2022/01/17 05:40:37;;;;;;;5.63;1.50;;;;;;;-2.32;100.00;97680.06;4884337;29;20108;-61
2022/01/17 05:43:22;;;;;;;8.23;1.80;;;;;;;-2.44;100.00;97659.34;4869288;29;20536;-57
2022/01/17 05:46:06;;;;;;;3.42;1.40;;;;;;;-2.43;100.00;97667.97;4877830;29;20071;-58
2022/01/17 05:48:51;;;;;;;4.20;1.40;;;;;;;-2.40;100.00;97663.66;4882562;29;20556;-56
2022/01/17 05:51:35;;;;;;;6.07;1.88;;;;;;;-2.40;100.00;97655.00;4889400;29;20112;-57
2022/01/17 05:54:21;;;;;;;6.57;1.83;;;;;;;-2.38;100.00;97661.06;4889154;29;20526;-64
2022/01/17 05:57:06;;;;;;;;;;;;;;;-2.36;100.00;97647.19;4919478;29;20114;-57
2022/01/17 05:59:51;;;;;;;3.42;1.38;;;;;;;-2.22;100.00;97637.63;4871212;29;19979;-56
2022/01/17 06:02:35;;;;;;;6.47;1.50;;;;;;;-2.34;100.00;97635.06;4878309;29;20056;-54
2022/01/17 06:05:21;;;;;;;4.35;1.75;;;;;;;-2.58;100.00;97608.34;4876073;29;20063;-61
2022/01/17 06:08:05;;;;;;;7.30;1.83;;;;;;;-2.66;100.00;97579.00;4877472;29;20055;-56
2022/01/17 06:10:50;;;;;;;;;;;;;;;-2.64;100.00;97579.88;4898522;29;20084;-62
2022/01/17 06:13:35;;;;;;;10.05;2.35;;;;;;;-2.81;100.00;97553.13;4885112;29;19969;-61
2022/01/17 06:16:19;;;;;;;10.27;2.45;;;;;;;-2.84;100.00;97548.84;4883867;29;20128;-58
2022/01/17 06:19:04;;;;;;;10.55;2.20;;;;;;;-2.93;100.00;97585.13;4886079;29;20055;-55
2022/01/17 06:21:49;;;;;;;7.45;1.90;;;;;;;-2.85;100.00;97596.34;4890351;29;20095;-57
2022/01/17 06:24:35;;;;;;;4.50;1.80;;;;;;;-2.70;100.00;97632.59;4888116;29;20413;-58
2022/01/17 06:27:21;;;;;;;8.15;2.28;;;;;;;-2.76;100.00;97705.22;4885966;29;20385;-58
2022/01/17 06:30:07;;;;;;;4.95;1.70;;;;;;;-2.67;100.00;97706.91;4891012;29;20063;-56
2022/01/17 06:32:52;;;;;;;10.93;2.55;;;;;;;-2.78;100.00;97729.41;4890870;29;20523;-62
2022/01/17 06:35:37;;;;;;;5.93;2.25;;;;;;;-2.76;100.00;97707.81;4890621;29;20189;-59
2022/01/17 06:38:23;;;;;;;11.63;2.50;;;;;;;-2.73;100.00;97665.47;4886747;29;20055;-58
2022/01/17 06:41:08;;;;;;;10.52;2.75;;;;;;;-2.82;100.00;97624.84;4890669;29;20107;-59
2022/01/17 06:43:53;;;;;;;11.57;3.22;;;;;;;-2.87;100.00;97604.97;4889131;29;20827;-58
2022/01/17 06:46:38;;;;;;;13.70;3.47;;;;;;;-2.94;100.00;97554.03;4872852;29;20060;-58
2022/01/17 06:49:24;;;;;;;8.70;2.22;;;;;;;-3.03;100.00;97548.88;4889209;29;20108;-58
2022/01/17 06:52:09;;;;;;;9.18;3.53;;;;;;;-3.00;100.00;97536.78;4889060;29;20047;-57
2022/01/17 06:54:54;;;;;;;13.13;3.95;;;;;;;-3.04;100.00;97537.66;4872177;29;20244;-58
2022/01/17 06:57:39;;;;;;;13.38;3.42;;;;;;;-3.06;100.00;97564.41;4889465;29;20179;-58
2022/01/17 07:00:23;;;;;;;9.95;2.80;;;;;;;-3.05;100.00;97571.34;4885649;29;20055;-58
2022/01/17 07:03:08;;;;;;;16.45;3.20;;;;;;;-2.98;100.00;97545.41;4880624;29;20063;-59
2022/01/17 07:05:53;;;;;;;12.27;3.20;;;;;;;-2.98;100.00;97526.38;4894088;29;20064;-63
2022/01/17 07:08:38;;;;;;;11.05;2.83;;;;;;;-3.01;100.00;97555.78;4876970;29;20136;-63
2022/01/17 07:11:23;;;;;;;10.35;3.17;;;;;;;-3.00;100.00;97547.16;4879926;29;20128;-65
2022/01/17 07:14:10;;;;;;;;;;;;;;;-2.87;100.00;97566.97;4878916;29;20456;-64
2022/01/17 07:16:58;;;;;;;10.65;2.78;;;;;;;-2.85;100.00;97541.06;4884411;29;19971;-59
2022/01/17 07:19:44;;;;;;;12.57;2.47;;;;;;;-2.85;100.00;97536.72;4884770;29;20520;-59
2022/01/17 07:22:30;;;;;;;10.77;2.85;;;;;;;-2.79;100.00;97528.94;4876392;29;20500;-62
2022/01/17 07:25:16;;;;;;;9.10;2.65;;;;;;;-2.81;100.00;97543.59;4876196;29;20086;-65
2022/01/17 07:28:01;;;;;;;11.60;2.80;;;;;;;-2.77;100.00;97516.81;4878740;29;20055;-62
2022/01/17 07:30:46;;;;;;;11.02;2.53;;;;;;;-2.70;100.00;97515.91;4888157;29;20099;-59
2022/01/17 07:33:37;;;;;;;14.77;2.83;;;;;;;-2.73;100.00;97508.16;4889520;29;20105;-61
2022/01/17 07:36:22;;;;;;;13.00;2.63;;;;;;;-2.73;100.00;97500.38;4888491;29;20092;-60
2022/01/17 07:39:09;;;;;;;7.82;2.13;;;;;;;-2.71;100.00;97511.63;4889222;29;20143;-66
2022/01/17 07:41:54;;;;;;;10.40;3.67;;;;;;;-2.67;100.00;97504.66;4886881;29;20059;-59
2022/01/17 07:44:44;;;;;;;7.45;2.53;;;;;;;-2.73;100.00;97479.63;4873500;29;20087;-58
2022/01/17 07:50:25;;;;;;;;;;;;;;;-2.62;100.00;97448.44;4888927;29;20058;-61
2022/01/17 07:53:13;;;;;;;11.77;3.05;;;;;;;-2.81;100.00;97455.47;4886721;29;19926;-59
2022/01/17 07:55:58;;;;;;;9.68;3.30;;;;;;;-2.66;100.00;97460.59;4886518;29;20060;-62
2022/01/17 07:58:45;;;;;;;9.60;2.50;;;;;;;-2.65;100.00;97454.53;4883293;29;20055;-56
2022/01/17 08:01:31;;;;;;;8.63;3.33;;;;;;;-2.69;100.00;97445.03;4873151;29;20539;-58
2022/01/17 08:04:16;;;;;;;;;;;;;;;-2.66;100.00;97447.63;4888219;29;20100;-61
2022/01/17 08:07:00;;;;;;;8.60;2.95;;;;;;;-2.72;100.00;97439.88;4886621;29;19927;-66
2022/01/17 08:09:50;;;;;;;10.38;3.25;;;;;;;-2.78;100.00;97434.72;4887787;29;20079;-56
2022/01/17 08:12:35;;;;;;;6.88;2.55;;;;;;;-2.65;100.00;97430.34;4886054;29;20799;-64
2022/01/17 08:15:20;;;;;;;7.32;2.97;;;;;;;-2.66;100.00;97442.44;4886639;29;20588;-58
2022/01/17 08:18:05;;;;;;;7.25;3.22;;;;;;;-2.52;100.00;97425.06;4885355;29;20071;-60
2022/01/17 08:20:51;;;;;;;6.97;3.38;;;;;;;-2.57;100.00;97433.75;4872537;29;20067;-73
2022/01/17 08:23:36;;;;;;;11.02;2.33;;;;;;;-2.58;100.00;97435.47;4889105;29;20056;-64
2022/01/17 08:26:22;;;;;;;6.97;2.47;;;;;;;-2.58;100.00;97440.66;4886466;29;20052;-60
2022/01/17 08:29:06;;;;;;;11.70;3.20;;;;;;;-2.58;100.00;97429.41;4889120;29;20052;-60
2022/01/17 08:31:51;;;;;;;10.43;2.97;;;;;;;-2.62;100.00;97431.16;4871479;29;20083;-60
2022/01/17 08:34:36;;;;;;;8.27;3.35;;;;;;;-2.55;100.00;97400.88;4888600;29;20163;-56
2022/01/17 08:37:21;;;;;;;7.97;2.97;;;;;;;-2.65;100.00;97407.84;4884579;29;20043;-61
2022/01/17 08:40:08;;;;;;;8.02;3.20;;;;;;;-2.60;100.00;97413.88;4887987;29;20063;-73
2022/01/17 08:42:54;;;;;;;14.00;3.53;;;;;;;-2.47;100.00;97410.34;4886004;29;20524;-61
2022/01/17 08:45:40;;;;;;;10.50;3.53;;;;;;;-2.61;100.00;97395.75;4873793;29;20087;-64
2022/01/17 08:48:26;;;;;;;9.77;3.72;;;;;;;-2.47;100.00;97415.53;4885679;29;20100;-59
2022/01/17 08:51:12;;;;;;;10.85;3.58;;;;;;;-2.50;100.00;97422.47;4884466;29;20531;-61
2022/01/17 08:53:56;;;;;;;14.25;3.60;;;;;;;-2.54;100.00;97400.88;4889027;29;20060;-62
2022/01/17 08:56:41;;;;;;;10.55;3.53;;;;;;;-2.51;100.00;97406.03;4887057;29;20071;-60
2022/01/17 08:59:28;;;;;;;10.68;3.17;;;;;;;-2.57;100.00;97411.25;4886390;29;20132;-60
2022/01/17 09:02:14;;;;;;;8.35;4.00;;;;;;;-2.52;100.00;97399.13;4868636;29;20135;-65
2022/01/17 09:05:00;;;;;;;13.13;4.15;;;;;;;-2.37;100.00;97400.75;4862789;29;20080;-59
2022/01/17 09:07:45;;;;;;;10.73;3.88;;;;;;;-2.39;100.00;97397.28;4887918;29;20060;-67
2022/01/17 09:10:31;;;;;;;10.23;3.88;;;;;;;-2.37;100.00;97374.81;4888671;29;20067;-59
2022/01/17 09:13:18;;;;;;;7.90;4.72;;;;;;;-2.40;100.00;97396.44;4887328;29;20429;-73
2022/01/17 09:16:06;;;;;;;6.63;3.42;;;;;;;-2.33;100.00;97382.53;4873588;29;20063;-65
2022/01/17 09:18:52;;;;;;;9.65;3.50;;;;;;;-2.32;100.00;97386.88;4889344;29;20051;-62
2022/01/17 09:21:37;;;;;;;6.15;3.50;;;;;;;-2.17;100.00;97370.31;4889358;29;20052;-62
2022/01/17 09:24:26;;;;;;;9.73;3.80;;;;;;;-2.13;100.00;97352.09;4893475;29;20108;-62
2022/01/17 09:27:20;;;;;;;8.43;3.03;;;;;;;-2.30;100.00;97353.97;4885452;29;20063;-59
2022/01/17 09:30:13;;;;;;;9.98;4.28;;;;;;;-2.20;100.00;97363.41;4891767;29;20193;-65
2022/01/17 09:32:59;;;;;;;10.00;2.97;;;;;;;-2.12;100.00;97359.03;4874115;29;20429;-64
2022/01/17 09:35:45;;;;;;;9.48;3.22;;;;;;;-2.17;100.00;97350.41;4887009;29;20051;-62
2022/01/17 09:38:29;;;;;;;11.57;3.10;;;;;;;-2.11;100.00;97339.09;4891099;29;20505;-62
2022/01/17 09:41:14;;;;;;;9.88;3.50;;;;;;;-2.08;100.00;97329.56;4887526;29;20112;-60
2022/01/17 09:44:00;;;;;;;12.40;3.53;;;;;;;-2.02;100.00;97329.50;4891186;29;20055;-65
2022/01/17 09:46:48;;;;;;;9.57;3.45;;;;;;;-1.93;100.00;97316.41;4867548;29;20075;-70
2022/01/17 09:50:09;;;;;;;11.18;3.95;;;;;;;-1.85;100.00;97325.00;4889661;29;20051;-70
2022/01/17 09:52:52;;;;;;;8.90;3.72;;;;;;;-1.83;100.00;97307.66;4880588;29;20068;-70
2022/01/17 09:55:38;;;;;;;8.68;3.38;;;;;;;-1.77;100.00;97317.13;4864250;29;21137;-60
2022/01/17 09:58:26;;;;;;;11.57;4.30;;;;;;;-1.71;100.00;97312.72;4894605;29;20047;-60
2022/01/17 10:01:12;;;;;;;11.70;4.32;;;;;;;-1.76;100.00;97306.72;4901580;29;20071;-65
2022/01/17 10:03:57;;;;;;;9.52;3.70;;;;;;;-1.82;100.00;97295.56;4865478;29;20104;-64
2022/01/17 10:06:41;;;;;;;10.05;4.18;;;;;;;-1.79;100.00;97304.16;4890218;29;20055;-66
2022/01/17 10:09:31;;;;;;;8.27;3.83;;;;;;;-1.58;100.00;97301.28;4884960;29;20055;-63
2022/01/17 10:12:17;;;;;;;13.10;5.00;;;;;;;-1.67;100.00;97277.16;4889438;29;20473;-62
2022/01/17 10:15:12;;;;;;;11.45;3.70;;;;;;;-1.63;100.00;97284.91;4876279;29;20530;-62
2022/01/17 10:18:00;;;;;;;17.70;4.90;;;;;;;-1.74;100.00;97280.75;4863317;29;20096;-63
2022/01/17 10:20:53;;;;;;;10.32;4.00;;;;;;;-1.75;100.00;97281.59;4877477;29;20538;-66
2022/01/17 10:23:48;;;;;;;10.20;4.40;;;;;;;-1.60;100.00;97273.63;4876542;29;20368;-63
2022/01/17 10:35:39;;;;;;;10.38;4.30;;;;;;;-1.86;100.00;97293.88;4868092;29;20135;-64
2022/01/17 10:38:29;;;;;;;12.00;4.68;;;;;;;-1.81;100.00;97282.56;4889197;29;20127;-60
2022/01/17 10:41:26;;;;;;;11.88;5.35;;;;;;;-1.95;100.00;97284.44;4881660;29;20063;-65
2022/01/17 10:44:33;;;;;;;13.15;5.38;;;;;;;-1.84;100.00;97273.91;4900066;29;20099;-63
2022/01/17 10:47:28;;;;;;;12.68;4.70;;;;;;;-1.90;100.00;97266.22;4879806;29;20064;-69
2022/01/17 10:50:22;;;;;;;16.58;5.85;;;;;;;-1.84;100.00;97242.78;4864655;29;20139;-61
2022/01/17 10:53:16;;;;;;;14.82;5.72;;;;;;;-1.85;100.00;97259.22;4891876;29;20152;-63
2022/01/17 10:56:07;;;;;;;13.73;5.00;;;;;;;-1.82;100.00;97249.66;4877562;29;20059;-64
2022/01/17 10:59:04;;;;;;;17.13;6.25;;;;;;;-1.76;100.00;97249.59;4882211;29;20101;-63
2022/01/17 11:01:54;;;;;;;13.23;4.70;;;;;;;-1.94;100.00;97236.81;4890083;29;20051;-62
2022/01/17 11:04:41;;;;;;;21.13;6.47;;;;;;;-1.78;100.00;97225.38;4871568;29;20224;-59
2022/01/17 11:07:28;;;;;;;17.70;6.28;;;;;;;-1.74;100.00;97241.78;4872278;29;20055;-62
2022/01/17 11:10:30;;;;;;;15.63;6.93;;;;;;;-1.74;100.00;97237.44;4875489;29;20148;-64
2022/01/17 11:13:18;;;;;;;13.95;6.65;;;;;;;-1.74;100.00;97229.66;4863766;29;20182;-64
2022/01/17 11:16:11;;;;;;;15.02;7.57;;;;;;;-1.72;100.00;97234.81;4875798;29;20071;-64
2022/01/17 11:19:21;;;;;;;12.25;6.88;;;;;;;-1.82;100.00;97228.03;4874165;29;20052;-64
2022/01/17 11:22:05;;;;;;;13.10;7.60;;;;;;;-1.84;100.00;97217.69;4883313;29;20104;-63
2022/01/17 11:24:52;;;;;;;16.95;7.30;;;;;;;-1.74;100.00;97214.06;4879416;29;20077;-57
2022/01/17 11:27:39;;;;;;;15.80;7.10;;;;;;;-1.85;100.00;97204.72;4884967;29;20461;-58
2022/01/17 11:30:24;;;;;;;;;;;;;;;-1.83;100.00;97208.13;4882938;29;20204;-58
2022/01/17 11:33:12;;;;;;;13.40;5.93;;;;;;;-1.88;100.00;97220.31;4871821;29;19935;-61
2022/01/17 11:35:58;;;;;;;13.20;6.38;;;;;;;-1.76;100.00;97201.97;4885821;29;20136;-62
2022/01/17 11:38:47;;;;;;;11.15;5.68;;;;;;;-1.83;100.00;97201.22;4889625;29;20132;-66
2022/01/17 11:41:35;;;;;;;10.35;5.07;;;;;;;-1.81;100.00;97198.59;4887478;29;20100;-62
2022/01/17 11:44:34;;;;;;;14.70;5.72;;;;;;;-1.70;100.00;97187.19;4891871;29;20108;-63
2022/01/17 11:47:49;;;;;;;11.00;4.95;;;;;;;-1.65;100.00;97187.13;4876314;29;20200;-63
2022/01/17 11:50:45;;;;;;;11.07;5.43;;;;;;;-1.75;100.00;97182.91;4870002;29;20589;-63
2022/01/17 11:53:30;;;;;;;10.45;5.97;;;;;;;-1.75;100.00;97189.00;4881178;29;20148;-64
2022/01/17 11:56:33;;;;;;;12.10;6.10;;;;;;;-1.78;100.00;97180.38;4885028;29;20060;-63
2022/01/17 11:59:40;;;;;;;13.85;6.13;;;;;;;-1.67;100.00;97181.09;4876548;29;20726;-64
2022/01/17 12:02:39;;;;;;;17.60;6.20;;;;;;;-1.65;100.00;97167.22;4884748;29;20068;-63
2022/01/17 12:05:25;;;;;;;12.82;6.40;;;;;;;-1.70;100.00;97165.56;4884182;29;20056;-69
2022/01/17 12:08:14;;;;;;;15.38;7.13;;;;;;;-1.63;100.00;97157.66;4874715;29;20554;-64
2022/01/17 12:11:02;;;;;;;11.93;6.18;;;;;;;-1.68;100.00;97154.28;4872094;29;20169;-64
2022/01/17 12:13:48;;;;;;;11.65;6.60;;;;;;;-1.55;100.00;97160.13;4889955;29;20071;-71
2022/01/17 12:16:36;;;;;;;14.07;6.65;;;;;;;-1.62;100.00;97150.72;4890965;29;20180;-62
2022/01/17 12:19:22;;;;;;;14.32;5.85;;;;;;;-1.74;100.00;97150.91;4888362;29;20055;-63
2022/01/17 12:22:07;;;;;;;10.90;5.70;;;;;;;-1.62;100.00;97154.16;4890452;29;20433;-64
2022/01/17 12:24:52;;;;;;;13.73;6.47;;;;;;;-1.63;100.00;97146.41;4877896;29;20052;-56
2022/01/17 12:27:37;;;;;;;14.05;6.80;;;;;;;-1.48;100.00;97151.38;4880087;29;20204;-71
2022/01/17 12:30:22;;;;;;;16.35;7.90;;;;;;;-1.53;100.00;97148.00;4893610;29;20099;-68
2022/01/17 12:33:12;;;;;;;15.55;6.03;;;;;;;-1.59;100.00;97150.66;4908612;29;20055;-72
2022/01/17 12:36:02;;;;;;;14.25;7.20;;;;;;;-1.52;100.00;97149.69;4882294;29;20135;-64
2022/01/17 12:38:48;;;;;;;14.75;7.55;;;;;;;-1.53;100.00;97156.66;4869892;29;20064;-63
2022/01/17 12:41:35;;;;;;;15.90;8.55;;;;;;;-1.55;100.00;97141.94;4875020;29;20063;-60
2022/01/17 12:44:22;;;;;;;16.20;7.60;;;;;;;-1.52;100.00;97123.72;4890012;29;20516;-55
2022/01/17 12:47:07;;;;;;;20.40;9.02;;;;;;;-1.48;100.00;97115.88;4861480;29;20059;-68
2022/01/17 12:49:52;;;;;;;15.05;7.78;;;;;;;-1.35;100.00;97121.72;4872783;29;20088;-57
2022/01/17 12:52:37;;;;;;;;;;;;;;;-1.36;100.00;97131.28;4872710;29;20128;-60
2022/01/17 12:55:23;;;;;;;14.80;7.25;;;;;;;-1.54;100.00;97121.16;4890189;29;19930;-58
2022/01/17 12:58:23;;;;;;;17.48;7.18;;;;;;;-1.52;100.00;97126.31;4874493;29;20073;-61
2022/01/17 13:01:17;;;;;;;18.40;7.85;;;;;;;-1.52;100.00;97129.78;4879880;29;20060;-56
2022/01/17 13:04:06;;;;;;;15.37;7.73;;;;;;;-1.53;100.00;97133.28;4884514;29;20107;-61
2022/01/17 13:06:53;;;;;;;16.80;7.53;;;;;;;-1.40;100.00;97131.31;4883143;29;20385;-64
2022/01/17 13:09:40;;;;;;;18.00;9.05;;;;;;;-1.41;100.00;97130.50;4878410;29;20129;-63
2022/01/17 13:12:25;;;;;;;15.75;8.10;;;;;;;-1.42;100.00;97133.94;4880464;29;20059;-63
2022/01/17 13:15:11;;;;;;;17.42;8.40;;;;;;;-1.46;100.00;97121.88;4877976;29;20846;-60
2022/01/17 13:17:58;;;;;;;18.38;8.60;;;;;;;-1.45;100.00;97113.25;4889923;29;20072;-60
2022/01/17 13:20:46;;;;;;;12.75;7.28;;;;;;;-1.36;100.00;97109.63;4872410;29;20088;-60
2022/01/17 13:23:45;;;;;;;16.15;8.73;;;;;;;-1.48;100.00;97105.47;4875472;29;20108;-60